sensor_id;sensor_type;location;lat;lon;timestamp;temperature;humidity
65404;DHT22;52014;52.088;5.096;2023-04-25T00:01:08;8.30;99.90
65404;DHT22;52014;52.088;5.096;2023-04-25T00:03:34;8.30;99.90
65404;DHT22;52014;52.088;5.096;2023-04-25T00:06:00;8.30;99.90
65404;DHT22;52014;52.088;5.096;2023-04-25T00:08:29;8.30;99.90
65404;DHT22;52014;52.088;5.096;2023-04-25T00:10:56;8.20;99.90
65404;DHT22;52014;52.088;5.096;2023-04-25T00:13:22;8.30;99.90
65404;DHT22;52014;52.088;5.096;2023-04-25T00:15:47;8.20;99.90
65404;DHT22;52014;52.088;5.096;2023-04-25T00:18:13;8.20;99.90
65404;DHT22;52014;52.088;5.096;2023-04-25T00:20:39;8.20;99.90
65404;DHT22;52014;52.088;5.096;2023-04-25T00:23:04;8.10;99.90
65404;DHT22;52014;52.088;5.096;2023-04-25T00:25:30;8.10;99.90
65404;DHT22;52014;52.088;5.096;2023-04-25T00:27:55;8.00;99.90
65404;DHT22;52014;52.088;5.096;2023-04-25T00:30:21;8.00;99.90
65404;DHT22;52014;52.088;5.096;2023-04-25T00:32:46;8.00;99.90
65404;DHT22;52014;52.088;5.096;2023-04-25T00:35:12;7.90;99.90
65404;DHT22;52014;52.088;5.096;2023-04-25T00:37:37;7.90;99.90
65404;DHT22;52014;52.088;5.096;2023-04-25T00:40:04;7.90;99.90
65404;DHT22;52014;52.088;5.096;2023-04-25T00:42:31;7.90;99.90
65404;DHT22;52014;52.088;5.096;2023-04-25T00:44:58;7.90;99.90
65404;DHT22;52014;52.088;5.096;2023-04-25T00:47:24;7.90;99.90
65404;DHT22;52014;52.088;5.096;2023-04-25T00:49:50;7.80;99.90
65404;DHT22;52014;52.088;5.096;2023-04-25T00:52:15;7.80;99.90
65404;DHT22;52014;52.088;5.096;2023-04-25T00:54:41;7.70;99.90
65404;DHT22;52014;52.088;5.096;2023-04-25T00:57:06;7.80;99.90
65404;DHT22;52014;52.088;5.096;2023-04-25T00:59:32;7.70;99.90
65404;DHT22;52014;52.088;5.096;2023-04-25T01:01:58;7.70;99.90
65404;DHT22;52014;52.088;5.096;2023-04-25T01:04:24;7.70;99.90
65404;DHT22;52014;52.088;5.096;2023-04-25T01:06:50;7.70;99.90
65404;DHT22;52014;52.088;5.096;2023-04-25T01:09:15;7.70;99.90
65404;DHT22;52014;52.088;5.096;2023-04-25T01:11:41;7.70;99.90
65404;DHT22;52014;52.088;5.096;2023-04-25T01:14:06;7.70;99.90
65404;DHT22;52014;52.088;5.096;2023-04-25T01:16:32;7.60;99.90
65404;DHT22;52014;52.088;5.096;2023-04-25T01:18:58;7.60;99.90
65404;DHT22;52014;52.088;5.096;2023-04-25T01:21:24;7.60;99.90
65404;DHT22;52014;52.088;5.096;2023-04-25T01:23:52;7.60;99.90
65404;DHT22;52014;52.088;5.096;2023-04-25T01:26:18;7.60;99.90
65404;DHT22;52014;52.088;5.096;2023-04-25T01:28:46;7.50;99.90
65404;DHT22;52014;52.088;5.096;2023-04-25T01:31:12;7.60;99.90
65404;DHT22;52014;52.088;5.096;2023-04-25T01:33:38;7.50;99.90
65404;DHT22;52014;52.088;5.096;2023-04-25T01:36:03;7.50;99.90
65404;DHT22;52014;52.088;5.096;2023-04-25T01:38:29;7.50;99.90
65404;DHT22;52014;52.088;5.096;2023-04-25T01:40:54;7.40;99.90
65404;DHT22;52014;52.088;5.096;2023-04-25T01:43:20;7.50;99.90
65404;DHT22;52014;52.088;5.096;2023-04-25T01:45:45;7.40;99.90
65404;DHT22;52014;52.088;5.096;2023-04-25T01:48:12;7.40;99.90
65404;DHT22;52014;52.088;5.096;2023-04-25T01:50:38;7.40;99.90
65404;DHT22;52014;52.088;5.096;2023-04-25T01:53:04;7.40;99.90
65404;DHT22;52014;52.088;5.096;2023-04-25T01:55:29;7.40;99.90
65404;DHT22;52014;52.088;5.096;2023-04-25T01:57:55;7.40;99.90
65404;DHT22;52014;52.088;5.096;2023-04-25T02:00:20;7.30;99.90
65404;DHT22;52014;52.088;5.096;2023-04-25T02:02:46;7.30;99.90
65404;DHT22;52014;52.088;5.096;2023-04-25T02:05:11;7.40;99.90
65404;DHT22;52014;52.088;5.096;2023-04-25T02:07:36;7.40;99.90
65404;DHT22;52014;52.088;5.096;2023-04-25T02:10:03;7.30;99.90
65404;DHT22;52014;52.088;5.096;2023-04-25T02:12:28;7.40;99.90
65404;DHT22;52014;52.088;5.096;2023-04-25T02:14:54;7.30;99.90
65404;DHT22;52014;52.088;5.096;2023-04-25T02:17:19;7.30;99.90
65404;DHT22;52014;52.088;5.096;2023-04-25T02:19:46;7.30;99.90
65404;DHT22;52014;52.088;5.096;2023-04-25T02:22:12;7.30;99.90
65404;DHT22;52014;52.088;5.096;2023-04-25T02:24:38;7.20;99.90
65404;DHT22;52014;52.088;5.096;2023-04-25T02:27:03;7.30;99.90
65404;DHT22;52014;52.088;5.096;2023-04-25T02:29:29;7.20;99.90
65404;DHT22;52014;52.088;5.096;2023-04-25T02:31:54;7.20;99.90
65404;DHT22;52014;52.088;5.096;2023-04-25T02:34:20;7.20;99.90
65404;DHT22;52014;52.088;5.096;2023-04-25T02:36:45;7.20;99.90
65404;DHT22;52014;52.088;5.096;2023-04-25T02:39:11;7.20;99.90
65404;DHT22;52014;52.088;5.096;2023-04-25T02:41:36;7.20;99.90
65404;DHT22;52014;52.088;5.096;2023-04-25T02:44:02;7.30;99.90
65404;DHT22;52014;52.088;5.096;2023-04-25T02:46:27;7.20;99.90
65404;DHT22;52014;52.088;5.096;2023-04-25T02:48:53;7.30;99.90
65404;DHT22;52014;52.088;5.096;2023-04-25T02:51:18;7.30;99.90
65404;DHT22;52014;52.088;5.096;2023-04-25T02:53:44;7.20;99.90
65404;DHT22;52014;52.088;5.096;2023-04-25T02:56:09;7.20;99.90
65404;DHT22;52014;52.088;5.096;2023-04-25T02:58:35;7.30;99.90
65404;DHT22;52014;52.088;5.096;2023-04-25T03:01:00;7.30;99.90
65404;DHT22;52014;52.088;5.096;2023-04-25T03:03:25;7.30;99.90
65404;DHT22;52014;52.088;5.096;2023-04-25T03:05:51;7.30;99.90
65404;DHT22;52014;52.088;5.096;2023-04-25T03:08:17;7.30;99.90
65404;DHT22;52014;52.088;5.096;2023-04-25T03:10:43;7.40;99.90
65404;DHT22;52014;52.088;5.096;2023-04-25T03:13:08;7.40;99.90
65404;DHT22;52014;52.088;5.096;2023-04-25T03:15:34;7.40;99.90
65404;DHT22;52014;52.088;5.096;2023-04-25T03:17:59;7.30;99.90
65404;DHT22;52014;52.088;5.096;2023-04-25T03:20:25;7.40;99.90
65404;DHT22;52014;52.088;5.096;2023-04-25T03:22:50;7.40;99.90
65404;DHT22;52014;52.088;5.096;2023-04-25T03:25:16;7.40;99.90
65404;DHT22;52014;52.088;5.096;2023-04-25T03:27:41;7.40;99.90
65404;DHT22;52014;52.088;5.096;2023-04-25T03:30:07;7.40;99.90
65404;DHT22;52014;52.088;5.096;2023-04-25T03:32:33;7.30;99.90
65404;DHT22;52014;52.088;5.096;2023-04-25T03:34:58;7.30;99.90
65404;DHT22;52014;52.088;5.096;2023-04-25T03:37:24;7.30;99.90
65404;DHT22;52014;52.088;5.096;2023-04-25T03:39:49;7.20;99.90
65404;DHT22;52014;52.088;5.096;2023-04-25T03:42:15;7.20;99.90
65404;DHT22;52014;52.088;5.096;2023-04-25T03:44:40;7.20;99.90
65404;DHT22;52014;52.088;5.096;2023-04-25T03:47:06;7.20;99.90
65404;DHT22;52014;52.088;5.096;2023-04-25T03:49:32;7.20;99.90
65404;DHT22;52014;52.088;5.096;2023-04-25T03:51:57;7.20;99.90
65404;DHT22;52014;52.088;5.096;2023-04-25T03:54:22;7.20;99.90
65404;DHT22;52014;52.088;5.096;2023-04-25T03:56:48;7.20;99.90
65404;DHT22;52014;52.088;5.096;2023-04-25T03:59:13;7.20;99.90
65404;DHT22;52014;52.088;5.096;2023-04-25T04:01:39;7.20;99.90
65404;DHT22;52014;52.088;5.096;2023-04-25T04:04:04;7.20;99.90
65404;DHT22;52014;52.088;5.096;2023-04-25T04:06:31;7.20;99.90
65404;DHT22;52014;52.088;5.096;2023-04-25T04:08:56;7.20;99.90
65404;DHT22;52014;52.088;5.096;2023-04-25T04:11:22;7.20;99.90
65404;DHT22;52014;52.088;5.096;2023-04-25T04:13:47;7.20;99.90
65404;DHT22;52014;52.088;5.096;2023-04-25T04:16:12;7.20;99.90
65404;DHT22;52014;52.088;5.096;2023-04-25T04:18:38;7.20;99.90
65404;DHT22;52014;52.088;5.096;2023-04-25T04:21:03;7.10;99.90
65404;DHT22;52014;52.088;5.096;2023-04-25T04:23:29;7.10;99.90
65404;DHT22;52014;52.088;5.096;2023-04-25T04:25:55;7.00;99.90
65404;DHT22;52014;52.088;5.096;2023-04-25T04:28:21;7.00;99.90
65404;DHT22;52014;52.088;5.096;2023-04-25T04:30:47;7.00;99.90
65404;DHT22;52014;52.088;5.096;2023-04-25T04:33:12;7.10;99.90
65404;DHT22;52014;52.088;5.096;2023-04-25T04:35:38;7.10;99.90
65404;DHT22;52014;52.088;5.096;2023-04-25T04:38:04;7.10;99.90
65404;DHT22;52014;52.088;5.096;2023-04-25T04:40:29;7.00;99.90
65404;DHT22;52014;52.088;5.096;2023-04-25T04:42:57;7.10;99.90
65404;DHT22;52014;52.088;5.096;2023-04-25T04:45:23;7.10;99.90
65404;DHT22;52014;52.088;5.096;2023-04-25T04:47:49;7.10;99.90
65404;DHT22;52014;52.088;5.096;2023-04-25T04:50:15;7.10;99.90
65404;DHT22;52014;52.088;5.096;2023-04-25T04:52:41;7.20;99.90
65404;DHT22;52014;52.088;5.096;2023-04-25T04:55:07;7.20;99.90
65404;DHT22;52014;52.088;5.096;2023-04-25T04:57:34;7.10;99.90
65404;DHT22;52014;52.088;5.096;2023-04-25T05:00:00;7.20;99.90
65404;DHT22;52014;52.088;5.096;2023-04-25T05:02:25;7.20;99.90
65404;DHT22;52014;52.088;5.096;2023-04-25T05:04:51;7.20;99.90
65404;DHT22;52014;52.088;5.096;2023-04-25T05:07:17;7.20;99.90
65404;DHT22;52014;52.088;5.096;2023-04-25T05:09:43;7.30;99.90
65404;DHT22;52014;52.088;5.096;2023-04-25T05:12:08;7.20;99.90
65404;DHT22;52014;52.088;5.096;2023-04-25T05:14:33;7.30;99.90
65404;DHT22;52014;52.088;5.096;2023-04-25T05:16:59;7.30;99.90
65404;DHT22;52014;52.088;5.096;2023-04-25T05:19:25;7.30;99.90
65404;DHT22;52014;52.088;5.096;2023-04-25T05:21:50;7.30;99.90
65404;DHT22;52014;52.088;5.096;2023-04-25T05:24:16;7.30;99.90
65404;DHT22;52014;52.088;5.096;2023-04-25T05:26:41;7.30;99.90
65404;DHT22;52014;52.088;5.096;2023-04-25T05:29:07;7.30;99.90
65404;DHT22;52014;52.088;5.096;2023-04-25T05:31:32;7.40;99.90
65404;DHT22;52014;52.088;5.096;2023-04-25T05:33:58;7.40;99.90
65404;DHT22;52014;52.088;5.096;2023-04-25T05:36:23;7.40;99.90
65404;DHT22;52014;52.088;5.096;2023-04-25T05:38:49;7.40;99.90
65404;DHT22;52014;52.088;5.096;2023-04-25T05:41:14;7.40;99.90
65404;DHT22;52014;52.088;5.096;2023-04-25T05:43:40;7.50;99.90
65404;DHT22;52014;52.088;5.096;2023-04-25T05:46:12;7.50;99.90
65404;DHT22;52014;52.088;5.096;2023-04-25T05:48:37;7.50;99.90
65404;DHT22;52014;52.088;5.096;2023-04-25T05:51:03;7.50;99.90
65404;DHT22;52014;52.088;5.096;2023-04-25T05:53:28;7.50;99.90
65404;DHT22;52014;52.088;5.096;2023-04-25T05:55:54;7.60;99.90
65404;DHT22;52014;52.088;5.096;2023-04-25T05:58:19;7.60;99.90
65404;DHT22;52014;52.088;5.096;2023-04-25T06:00:45;7.60;99.90
65404;DHT22;52014;52.088;5.096;2023-04-25T06:03:11;7.70;99.90
65404;DHT22;52014;52.088;5.096;2023-04-25T06:05:38;7.70;99.90
65404;DHT22;52014;52.088;5.096;2023-04-25T06:08:04;7.80;99.90
65404;DHT22;52014;52.088;5.096;2023-04-25T06:10:29;7.80;99.90
65404;DHT22;52014;52.088;5.096;2023-04-25T06:12:55;7.80;99.90
65404;DHT22;52014;52.088;5.096;2023-04-25T06:15:20;7.80;99.90
65404;DHT22;52014;52.088;5.096;2023-04-25T06:17:46;7.80;99.90
65404;DHT22;52014;52.088;5.096;2023-04-25T06:20:11;7.90;99.90
65404;DHT22;52014;52.088;5.096;2023-04-25T06:22:36;8.00;99.90
65404;DHT22;52014;52.088;5.096;2023-04-25T06:25:02;8.00;99.90
65404;DHT22;52014;52.088;5.096;2023-04-25T06:27:29;8.40;99.90
65404;DHT22;52014;52.088;5.096;2023-04-25T06:29:55;8.30;99.90
65404;DHT22;52014;52.088;5.096;2023-04-25T06:32:20;8.50;99.90
65404;DHT22;52014;52.088;5.096;2023-04-25T06:34:46;8.70;99.90
65404;DHT22;52014;52.088;5.096;2023-04-25T06:37:11;8.90;99.90
65404;DHT22;52014;52.088;5.096;2023-04-25T06:39:37;9.10;99.90
65404;DHT22;52014;52.088;5.096;2023-04-25T06:42:02;9.30;99.90
65404;DHT22;52014;52.088;5.096;2023-04-25T06:44:27;9.50;99.90
65404;DHT22;52014;52.088;5.096;2023-04-25T06:46:54;9.60;99.90
65404;DHT22;52014;52.088;5.096;2023-04-25T06:49:20;9.80;99.90
65404;DHT22;52014;52.088;5.096;2023-04-25T06:51:45;10.20;99.90
65404;DHT22;52014;52.088;5.096;2023-04-25T06:54:10;10.40;99.90
65404;DHT22;52014;52.088;5.096;2023-04-25T06:56:36;10.60;99.90
65404;DHT22;52014;52.088;5.096;2023-04-25T06:59:01;10.80;99.90
65404;DHT22;52014;52.088;5.096;2023-04-25T07:01:27;10.50;99.90
65404;DHT22;52014;52.088;5.096;2023-04-25T07:03:52;10.20;99.90
65404;DHT22;52014;52.088;5.096;2023-04-25T07:06:18;10.10;99.90
65404;DHT22;52014;52.088;5.096;2023-04-25T07:08:43;10.00;99.90
65404;DHT22;52014;52.088;5.096;2023-04-25T07:11:09;9.90;99.90
65404;DHT22;52014;52.088;5.096;2023-04-25T07:13:34;9.60;99.90
65404;DHT22;52014;52.088;5.096;2023-04-25T07:16:00;9.60;99.90
65404;DHT22;52014;52.088;5.096;2023-04-25T07:18:25;9.70;99.90
65404;DHT22;52014;52.088;5.096;2023-04-25T07:20:51;9.60;99.90
65404;DHT22;52014;52.088;5.096;2023-04-25T07:23:16;9.40;99.90
65404;DHT22;52014;52.088;5.096;2023-04-25T07:25:42;9.30;99.90
65404;DHT22;52014;52.088;5.096;2023-04-25T07:28:07;9.20;99.90
65404;DHT22;52014;52.088;5.096;2023-04-25T07:30:33;9.10;99.90
65404;DHT22;52014;52.088;5.096;2023-04-25T07:33:00;9.10;99.90
65404;DHT22;52014;52.088;5.096;2023-04-25T07:35:25;8.90;99.90
65404;DHT22;52014;52.088;5.096;2023-04-25T07:37:50;8.80;99.90
65404;DHT22;52014;52.088;5.096;2023-04-25T07:40:16;8.80;99.90
65404;DHT22;52014;52.088;5.096;2023-04-25T07:42:41;8.80;99.90
65404;DHT22;52014;52.088;5.096;2023-04-25T07:45:07;8.80;99.90
65404;DHT22;52014;52.088;5.096;2023-04-25T07:47:32;8.80;99.90
65404;DHT22;52014;52.088;5.096;2023-04-25T07:49:58;8.90;99.90
65404;DHT22;52014;52.088;5.096;2023-04-25T07:52:23;9.00;99.90
65404;DHT22;52014;52.088;5.096;2023-04-25T07:54:49;9.10;99.90
65404;DHT22;52014;52.088;5.096;2023-04-25T07:57:14;9.20;99.90
65404;DHT22;52014;52.088;5.096;2023-04-25T07:59:40;9.30;99.90
65404;DHT22;52014;52.088;5.096;2023-04-25T08:02:05;9.40;99.90
65404;DHT22;52014;52.088;5.096;2023-04-25T08:04:31;9.50;99.90
65404;DHT22;52014;52.088;5.096;2023-04-25T08:06:56;9.70;99.90
65404;DHT22;52014;52.088;5.096;2023-04-25T08:09:22;10.00;99.90
65404;DHT22;52014;52.088;5.096;2023-04-25T08:11:47;10.20;99.90
65404;DHT22;52014;52.088;5.096;2023-04-25T08:14:13;10.60;99.90
65404;DHT22;52014;52.088;5.096;2023-04-25T08:16:38;10.90;99.90
65404;DHT22;52014;52.088;5.096;2023-04-25T08:19:04;11.20;99.90
65404;DHT22;52014;52.088;5.096;2023-04-25T08:21:30;11.20;99.90
65404;DHT22;52014;52.088;5.096;2023-04-25T08:23:56;11.30;99.90
65404;DHT22;52014;52.088;5.096;2023-04-25T08:26:23;11.60;99.90
65404;DHT22;52014;52.088;5.096;2023-04-25T08:28:49;11.70;99.90
65404;DHT22;52014;52.088;5.096;2023-04-25T08:31:14;11.90;99.90
65404;DHT22;52014;52.088;5.096;2023-04-25T08:33:40;12.10;99.90
65404;DHT22;52014;52.088;5.096;2023-04-25T08:36:05;11.70;99.90
65404;DHT22;52014;52.088;5.096;2023-04-25T08:38:31;11.50;99.90
65404;DHT22;52014;52.088;5.096;2023-04-25T08:40:56;11.50;99.90
65404;DHT22;52014;52.088;5.096;2023-04-25T08:43:22;11.20;99.90
65404;DHT22;52014;52.088;5.096;2023-04-25T08:45:48;11.10;99.90
65404;DHT22;52014;52.088;5.096;2023-04-25T08:48:15;11.10;99.90
65404;DHT22;52014;52.088;5.096;2023-04-25T08:50:51;11.30;99.90
65404;DHT22;52014;52.088;5.096;2023-04-25T08:53:17;11.70;99.90
65404;DHT22;52014;52.088;5.096;2023-04-25T08:55:46;12.20;99.90
65404;DHT22;52014;52.088;5.096;2023-04-25T08:58:13;12.20;99.90
65404;DHT22;52014;52.088;5.096;2023-04-25T09:00:39;12.50;99.90
65404;DHT22;52014;52.088;5.096;2023-04-25T09:03:05;12.80;99.90
65404;DHT22;52014;52.088;5.096;2023-04-25T09:05:33;12.50;99.90
65404;DHT22;52014;52.088;5.096;2023-04-25T09:08:00;11.70;99.90
65404;DHT22;52014;52.088;5.096;2023-04-25T09:10:26;11.20;99.90
65404;DHT22;52014;52.088;5.096;2023-04-25T09:15:30;10.90;99.90
65404;DHT22;52014;52.088;5.096;2023-04-25T09:17:56;11.40;99.90
65404;DHT22;52014;52.088;5.096;2023-04-25T09:20:21;11.80;99.90
65404;DHT22;52014;52.088;5.096;2023-04-25T09:22:47;12.10;99.90
65404;DHT22;52014;52.088;5.096;2023-04-25T09:25:12;12.50;99.90
65404;DHT22;52014;52.088;5.096;2023-04-25T09:27:49;12.80;99.90
65404;DHT22;52014;52.088;5.096;2023-04-25T09:30:15;13.00;99.90
65404;DHT22;52014;52.088;5.096;2023-04-25T09:32:41;13.00;99.90
65404;DHT22;52014;52.088;5.096;2023-04-25T09:35:07;12.90;99.90
65404;DHT22;52014;52.088;5.096;2023-04-25T09:37:33;12.40;99.90
65404;DHT22;52014;52.088;5.096;2023-04-25T09:39:59;12.10;99.90
65404;DHT22;52014;52.088;5.096;2023-04-25T09:42:28;11.80;99.90
65404;DHT22;52014;52.088;5.096;2023-04-25T09:44:56;11.70;99.90
65404;DHT22;52014;52.088;5.096;2023-04-25T09:47:23;11.30;99.90
65404;DHT22;52014;52.088;5.096;2023-04-25T09:49:49;10.80;99.90
65404;DHT22;52014;52.088;5.096;2023-04-25T09:52:15;10.60;99.90
65404;DHT22;52014;52.088;5.096;2023-04-25T09:54:41;10.30;99.90
65404;DHT22;52014;52.088;5.096;2023-04-25T09:57:10;10.30;99.90
65404;DHT22;52014;52.088;5.096;2023-04-25T09:59:38;10.40;99.90
65404;DHT22;52014;52.088;5.096;2023-04-25T10:02:03;10.30;99.90
65404;DHT22;52014;52.088;5.096;2023-04-25T10:04:29;10.40;99.90
65404;DHT22;52014;52.088;5.096;2023-04-25T10:06:58;10.30;99.90
65404;DHT22;52014;52.088;5.096;2023-04-25T10:09:25;10.20;99.90
65404;DHT22;52014;52.088;5.096;2023-04-25T10:11:51;10.30;99.90
65404;DHT22;52014;52.088;5.096;2023-04-25T10:14:17;10.30;99.90
65404;DHT22;52014;52.088;5.096;2023-04-25T10:16:43;10.50;99.90
65404;DHT22;52014;52.088;5.096;2023-04-25T10:19:09;10.70;99.90
65404;DHT22;52014;52.088;5.096;2023-04-25T10:21:35;10.80;99.90
65404;DHT22;52014;52.088;5.096;2023-04-25T10:24:03;10.90;99.90
65404;DHT22;52014;52.088;5.096;2023-04-25T10:26:29;11.00;99.90
65404;DHT22;52014;52.088;5.096;2023-04-25T10:28:58;11.10;99.90
65404;DHT22;52014;52.088;5.096;2023-04-25T10:31:24;11.20;99.90
65404;DHT22;52014;52.088;5.096;2023-04-25T10:33:49;11.30;99.90
65404;DHT22;52014;52.088;5.096;2023-04-25T10:36:17;11.50;99.90
65404;DHT22;52014;52.088;5.096;2023-04-25T10:38:43;11.60;99.90
65404;DHT22;52014;52.088;5.096;2023-04-25T10:41:09;11.80;99.90
65404;DHT22;52014;52.088;5.096;2023-04-25T10:46:19;11.90;99.90
65404;DHT22;52014;52.088;5.096;2023-04-25T10:48:48;12.00;99.90
65404;DHT22;52014;52.088;5.096;2023-04-25T10:51:27;12.10;99.90
65404;DHT22;52014;52.088;5.096;2023-04-25T10:56:21;12.50;99.90
65404;DHT22;52014;52.088;5.096;2023-04-25T10:58:47;12.20;99.90
65404;DHT22;52014;52.088;5.096;2023-04-25T11:01:13;12.00;99.90
65404;DHT22;52014;52.088;5.096;2023-04-25T11:03:40;11.70;99.90
65404;DHT22;52014;52.088;5.096;2023-04-25T11:06:07;11.50;99.90
65404;DHT22;52014;52.088;5.096;2023-04-25T11:08:51;11.20;99.90
65404;DHT22;52014;52.088;5.096;2023-04-25T11:11:17;11.10;99.90
65404;DHT22;52014;52.088;5.096;2023-04-25T11:13:43;11.20;99.90
65404;DHT22;52014;52.088;5.096;2023-04-25T11:16:08;11.70;99.90
65404;DHT22;52014;52.088;5.096;2023-04-25T11:18:34;11.70;99.90
65404;DHT22;52014;52.088;5.096;2023-04-25T11:20:59;11.50;99.90
65404;DHT22;52014;52.088;5.096;2023-04-25T11:23:25;11.40;99.90
65404;DHT22;52014;52.088;5.096;2023-04-25T11:25:52;11.20;99.90
65404;DHT22;52014;52.088;5.096;2023-04-25T11:28:21;11.00;99.90
65404;DHT22;52014;52.088;5.096;2023-04-25T11:30:50;11.30;99.90
65404;DHT22;52014;52.088;5.096;2023-04-25T11:33:16;11.30;99.90
65404;DHT22;52014;52.088;5.096;2023-04-25T11:35:41;11.10;99.90
65404;DHT22;52014;52.088;5.096;2023-04-25T11:38:07;11.10;99.90
65404;DHT22;52014;52.088;5.096;2023-04-25T11:40:32;11.10;99.90
65404;DHT22;52014;52.088;5.096;2023-04-25T11:42:59;11.20;99.90
65404;DHT22;52014;52.088;5.096;2023-04-25T11:45:25;11.20;99.90
65404;DHT22;52014;52.088;5.096;2023-04-25T11:47:50;11.20;99.90
65404;DHT22;52014;52.088;5.096;2023-04-25T11:50:16;11.10;99.90
65404;DHT22;52014;52.088;5.096;2023-04-25T11:52:42;10.80;99.90
65404;DHT22;52014;52.088;5.096;2023-04-25T11:55:09;10.60;99.90
65404;DHT22;52014;52.088;5.096;2023-04-25T11:57:35;10.50;99.90
65404;DHT22;52014;52.088;5.096;2023-04-25T12:02:36;10.30;99.90
65404;DHT22;52014;52.088;5.096;2023-04-25T12:05:02;10.20;99.90
65404;DHT22;52014;52.088;5.096;2023-04-25T12:07:29;10.10;99.90
65404;DHT22;52014;52.088;5.096;2023-04-25T12:09:55;10.10;99.90
65404;DHT22;52014;52.088;5.096;2023-04-25T12:12:21;10.20;99.90
65404;DHT22;52014;52.088;5.096;2023-04-25T12:14:47;10.30;99.90
65404;DHT22;52014;52.088;5.096;2023-04-25T12:17:16;10.30;99.90
65404;DHT22;52014;52.088;5.096;2023-04-25T12:19:41;10.30;99.90
65404;DHT22;52014;52.088;5.096;2023-04-25T12:22:19;10.30;99.90
65404;DHT22;52014;52.088;5.096;2023-04-25T12:24:45;10.50;99.90
65404;DHT22;52014;52.088;5.096;2023-04-25T12:27:10;10.70;99.90
65404;DHT22;52014;52.088;5.096;2023-04-25T12:29:49;11.00;99.90
65404;DHT22;52014;52.088;5.096;2023-04-25T12:32:15;11.30;99.90
65404;DHT22;52014;52.088;5.096;2023-04-25T12:34:40;11.40;99.90
65404;DHT22;52014;52.088;5.096;2023-04-25T12:37:06;11.30;99.90
65404;DHT22;52014;52.088;5.096;2023-04-25T12:39:32;11.10;99.90
65404;DHT22;52014;52.088;5.096;2023-04-25T12:41:57;11.00;99.90
65404;DHT22;52014;52.088;5.096;2023-04-25T12:44:24;10.90;99.90
65404;DHT22;52014;52.088;5.096;2023-04-25T12:46:49;10.90;99.90
65404;DHT22;52014;52.088;5.096;2023-04-25T12:49:15;10.90;99.90
65404;DHT22;52014;52.088;5.096;2023-04-25T12:51:40;11.00;99.90
65404;DHT22;52014;52.088;5.096;2023-04-25T12:54:07;11.10;99.90
65404;DHT22;52014;52.088;5.096;2023-04-25T12:56:33;11.00;99.90
65404;DHT22;52014;52.088;5.096;2023-04-25T12:58:59;10.90;99.90
65404;DHT22;52014;52.088;5.096;2023-04-25T13:01:25;11.00;99.90
65404;DHT22;52014;52.088;5.096;2023-04-25T13:03:50;11.00;99.90
65404;DHT22;52014;52.088;5.096;2023-04-25T13:06:16;11.20;99.90
65404;DHT22;52014;52.088;5.096;2023-04-25T13:08:42;11.30;99.90
65404;DHT22;52014;52.088;5.096;2023-04-25T13:11:07;11.30;99.90
65404;DHT22;52014;52.088;5.096;2023-04-25T13:13:33;11.40;99.90
65404;DHT22;52014;52.088;5.096;2023-04-25T13:16:02;11.40;99.90
65404;DHT22;52014;52.088;5.096;2023-04-25T13:18:29;11.40;99.90
65404;DHT22;52014;52.088;5.096;2023-04-25T13:20:54;11.40;99.90
65404;DHT22;52014;52.088;5.096;2023-04-25T13:23:19;11.30;99.90
65404;DHT22;52014;52.088;5.096;2023-04-25T13:25:46;11.10;99.90
65404;DHT22;52014;52.088;5.096;2023-04-25T13:28:11;11.10;99.90
65404;DHT22;52014;52.088;5.096;2023-04-25T13:30:36;11.20;99.90
65404;DHT22;52014;52.088;5.096;2023-04-25T13:33:02;11.20;99.90
65404;DHT22;52014;52.088;5.096;2023-04-25T13:35:29;11.30;99.90
65404;DHT22;52014;52.088;5.096;2023-04-25T13:37:54;11.30;99.90
65404;DHT22;52014;52.088;5.096;2023-04-25T13:40:20;11.30;99.90
65404;DHT22;52014;52.088;5.096;2023-04-25T13:42:46;11.30;99.90
65404;DHT22;52014;52.088;5.096;2023-04-25T13:45:11;11.30;99.90
65404;DHT22;52014;52.088;5.096;2023-04-25T13:47:37;11.40;99.90
65404;DHT22;52014;52.088;5.096;2023-04-25T13:50:03;11.40;99.90
65404;DHT22;52014;52.088;5.096;2023-04-25T13:52:29;11.40;99.90
65404;DHT22;52014;52.088;5.096;2023-04-25T13:54:54;11.40;99.90
65404;DHT22;52014;52.088;5.096;2023-04-25T13:57:19;11.30;99.90
65404;DHT22;52014;52.088;5.096;2023-04-25T13:59:45;11.20;99.90
65404;DHT22;52014;52.088;5.096;2023-04-25T14:02:11;11.00;99.90
65404;DHT22;52014;52.088;5.096;2023-04-25T14:04:37;10.90;99.90
65404;DHT22;52014;52.088;5.096;2023-04-25T14:07:03;10.90;99.90
65404;DHT22;52014;52.088;5.096;2023-04-25T14:09:29;10.90;99.90
65404;DHT22;52014;52.088;5.096;2023-04-25T14:11:54;11.10;99.90
65404;DHT22;52014;52.088;5.096;2023-04-25T14:14:20;11.20;99.90
65404;DHT22;52014;52.088;5.096;2023-04-25T14:16:47;11.30;99.90
65404;DHT22;52014;52.088;5.096;2023-04-25T14:19:16;11.20;99.90
65404;DHT22;52014;52.088;5.096;2023-04-25T14:21:41;11.10;99.90
65404;DHT22;52014;52.088;5.096;2023-04-25T14:24:08;11.10;99.90
65404;DHT22;52014;52.088;5.096;2023-04-25T14:26:34;11.10;99.90
65404;DHT22;52014;52.088;5.096;2023-04-25T14:29:00;11.10;99.90
65404;DHT22;52014;52.088;5.096;2023-04-25T14:31:26;10.90;99.90
65404;DHT22;52014;52.088;5.096;2023-04-25T14:33:51;10.70;99.90
65404;DHT22;52014;52.088;5.096;2023-04-25T14:36:17;10.60;99.90
65404;DHT22;52014;52.088;5.096;2023-04-25T14:38:43;10.60;99.90
65404;DHT22;52014;52.088;5.096;2023-04-25T14:41:08;10.60;99.90
65404;DHT22;52014;52.088;5.096;2023-04-25T14:43:34;10.50;99.90
65404;DHT22;52014;52.088;5.096;2023-04-25T14:45:59;10.50;99.90
65404;DHT22;52014;52.088;5.096;2023-04-25T14:48:25;10.50;99.90
65404;DHT22;52014;52.088;5.096;2023-04-25T14:50:51;10.60;99.90
65404;DHT22;52014;52.088;5.096;2023-04-25T14:53:16;10.60;99.90
65404;DHT22;52014;52.088;5.096;2023-04-25T14:55:42;10.50;99.90
65404;DHT22;52014;52.088;5.096;2023-04-25T14:58:07;10.60;99.90
65404;DHT22;52014;52.088;5.096;2023-04-25T15:00:33;10.60;99.90
65404;DHT22;52014;52.088;5.096;2023-04-25T15:02:58;10.60;99.90
65404;DHT22;52014;52.088;5.096;2023-04-25T15:05:24;10.50;99.90
65404;DHT22;52014;52.088;5.096;2023-04-25T15:07:50;10.50;99.90
65404;DHT22;52014;52.088;5.096;2023-04-25T15:10:16;10.50;99.90
65404;DHT22;52014;52.088;5.096;2023-04-25T15:12:42;10.50;99.90
65404;DHT22;52014;52.088;5.096;2023-04-25T15:15:08;10.60;99.90
65404;DHT22;52014;52.088;5.096;2023-04-25T15:17:43;10.60;99.90
65404;DHT22;52014;52.088;5.096;2023-04-25T15:20:09;10.60;99.90
65404;DHT22;52014;52.088;5.096;2023-04-25T15:22:35;10.70;99.90
65404;DHT22;52014;52.088;5.096;2023-04-25T15:25:01;10.70;99.90
65404;DHT22;52014;52.088;5.096;2023-04-25T15:27:26;10.60;99.90
65404;DHT22;52014;52.088;5.096;2023-04-25T15:29:52;10.50;99.90
65404;DHT22;52014;52.088;5.096;2023-04-25T15:32:18;10.50;99.90
65404;DHT22;52014;52.088;5.096;2023-04-25T15:34:43;10.40;99.90
65404;DHT22;52014;52.088;5.096;2023-04-25T15:37:09;10.30;99.90
65404;DHT22;52014;52.088;5.096;2023-04-25T15:39:34;10.30;99.90